createdAt,value
2022-11-07T00:02:09.225Z,4.50
2022-11-07T00:04:37.418Z,4.28
2022-11-07T00:07:05.956Z,5.13
2022-11-07T00:09:34.233Z,3.90
2022-11-07T00:12:02.129Z,4.57
2022-11-07T00:14:31.381Z,4.15
2022-11-07T00:16:59.323Z,3.83
2022-11-07T00:19:27.329Z,3.67
2022-11-07T00:21:55.293Z,3.67
2022-11-07T00:24:23.143Z,3.67
2022-11-07T00:26:51.188Z,3.45
2022-11-07T00:29:21.227Z,3.30
2022-11-07T00:31:50.943Z,3.63
2022-11-07T00:34:18.927Z,3.55
2022-11-07T00:36:46.928Z,3.53
2022-11-07T00:39:14.827Z,3.50
2022-11-07T00:41:42.850Z,3.42
2022-11-07T00:44:10.691Z,2.78
2022-11-07T00:46:39.004Z,3.20
2022-11-07T00:49:08.272Z,3.10
2022-11-07T00:51:36.352Z,3.10
2022-11-07T00:54:04.291Z,3.38
2022-11-07T00:56:32.254Z,3.50
2022-11-07T00:59:01.534Z,3.30
2022-11-07T01:01:32.316Z,2.80
2022-11-07T01:04:18.107Z,3.38
2022-11-07T01:06:48.150Z,3.33
2022-11-07T01:09:18.231Z,3.03
2022-11-07T01:11:46.911Z,3.47
2022-11-07T01:14:17.402Z,3.05
2022-11-07T01:16:45.690Z,3.20
2022-11-07T01:19:13.571Z,3.22
2022-11-07T01:21:42.875Z,3.50
2022-11-07T01:24:13.924Z,2.80
2022-11-07T01:26:43.345Z,3.00
2022-11-07T01:29:11.593Z,3.17
2022-11-07T01:31:39.497Z,2.90
2022-11-07T01:34:08.063Z,2.92
2022-11-07T01:36:35.984Z,3.53
2022-11-07T01:39:04.684Z,3.35
2022-11-07T01:41:35.674Z,3.50
2022-11-07T01:44:06.031Z,3.08
2022-11-07T01:46:35.931Z,3.65
2022-11-07T01:49:08.640Z,2.75
2022-11-07T01:51:40.775Z,3.40
2022-11-07T01:54:08.890Z,3.25
2022-11-07T01:56:42.007Z,3.25
2022-11-07T01:59:12.683Z,3.35
2022-11-07T02:01:40.873Z,3.40
2022-11-07T02:04:09.889Z,3.22
2022-11-07T02:06:43.641Z,3.40
2022-11-07T02:09:11.777Z,3.22
2022-11-07T02:11:41.260Z,3.25
2022-11-07T02:14:09.496Z,3.65
2022-11-07T02:16:37.989Z,3.30
2022-11-07T02:19:12.222Z,3.20
2022-11-07T02:21:47.156Z,3.35
2022-11-07T02:24:28.050Z,4.13
2022-11-07T02:26:58.024Z,3.45
2022-11-07T02:29:28.218Z,2.83
2022-11-07T02:32:03.706Z,2.88
2022-11-07T02:34:31.778Z,3.53
2022-11-07T02:37:01.360Z,3.65
2022-11-07T02:39:30.763Z,3.30
2022-11-07T02:42:00.334Z,3.42
2022-11-07T02:44:29.938Z,3.08
2022-11-07T02:46:58.268Z,3.25
2022-11-07T02:49:26.185Z,2.90
2022-11-07T02:51:54.078Z,3.72
2022-11-07T02:54:21.941Z,3.20
2022-11-07T02:56:51.208Z,3.22
2022-11-07T02:59:21.844Z,3.22
2022-11-07T03:01:53.935Z,3.50
2022-11-07T03:04:24.047Z,3.30
2022-11-07T03:06:52.008Z,3.45
2022-11-07T03:09:19.880Z,3.33
2022-11-07T03:11:47.761Z,3.20
2022-11-07T03:14:17.171Z,3.40
2022-11-07T03:16:45.073Z,3.10
2022-11-07T03:19:12.981Z,3.00
2022-11-07T03:21:40.881Z,3.47
2022-11-07T03:24:08.843Z,3.55
2022-11-07T03:26:36.776Z,3.28
2022-11-07T03:29:04.678Z,3.17
2022-11-07T03:31:33.950Z,3.08
2022-11-07T03:34:02.116Z,3.15
2022-11-07T03:36:30.018Z,2.80
2022-11-07T03:38:57.927Z,3.47
2022-11-07T03:41:26.069Z,3.00
2022-11-07T03:43:54.061Z,2.97
2022-11-07T03:46:22.101Z,3.15
2022-11-07T03:48:51.340Z,2.72
2022-11-07T03:51:19.186Z,3.70
2022-11-07T03:53:47.097Z,3.03
2022-11-07T03:56:14.990Z,2.97
2022-11-07T03:58:42.848Z,2.70
2022-11-07T04:01:13.184Z,3.00
2022-11-07T04:03:41.199Z,2.75
2022-11-07T04:06:10.813Z,2.70
2022-11-07T04:08:38.786Z,2.70
2022-11-07T04:11:06.942Z,2.53
2022-11-07T04:13:52.135Z,2.45
2022-11-07T04:16:49.578Z,2.80
2022-11-07T04:19:17.410Z,2.72
2022-11-07T04:21:46.637Z,2.75
2022-11-07T04:24:14.612Z,3.13
2022-11-07T04:27:12.600Z,2.53
2022-11-07T04:29:40.470Z,3.00
2022-11-07T04:32:08.591Z,2.30
2022-11-07T04:34:36.435Z,2.72
2022-11-07T04:37:05.693Z,2.88
2022-11-07T04:39:33.714Z,2.72
2022-11-07T04:42:01.574Z,3.20
2022-11-07T04:44:29.442Z,2.60
2022-11-07T04:46:57.346Z,2.88
2022-11-07T04:49:25.318Z,2.90
2022-11-07T04:51:57.198Z,2.53
2022-11-07T04:54:26.534Z,2.80
2022-11-07T04:56:54.394Z,2.70
2022-11-07T04:59:22.366Z,3.15
2022-11-07T05:01:50.297Z,3.03
2022-11-07T05:04:18.259Z,2.55
2022-11-07T05:06:46.140Z,3.20
2022-11-07T05:09:18.061Z,2.80
2022-11-07T05:11:47.796Z,2.85
2022-11-07T05:14:16.065Z,3.15
2022-11-07T05:16:44.625Z,2.97
2022-11-07T05:19:16.288Z,2.92
2022-11-07T05:21:44.255Z,2.65
2022-11-07T05:24:11.493Z,2.90
2022-11-07T05:26:39.692Z,2.90
2022-11-07T05:29:09.090Z,3.08
2022-11-07T05:31:37.209Z,3.08
2022-11-07T05:34:05.109Z,3.00
2022-11-07T05:36:33.626Z,3.17
2022-11-07T05:39:01.495Z,3.45
2022-11-07T05:41:29.465Z,3.50
2022-11-07T05:43:57.802Z,3.60
2022-11-07T05:46:27.026Z,2.60
2022-11-07T05:48:59.726Z,2.60
2022-11-07T05:51:28.916Z,3.00
2022-11-07T05:53:56.725Z,3.15
2022-11-07T05:56:24.690Z,2.60
2022-11-07T05:58:52.703Z,2.72
2022-11-07T06:01:20.643Z,2.58
2022-11-07T06:03:51.604Z,2.88
2022-11-07T06:06:19.613Z,3.05
2022-11-07T06:08:47.719Z,2.95
2022-11-07T06:11:15.926Z,2.50
2022-11-07T06:13:44.026Z,2.70
2022-11-07T06:16:12.302Z,2.80
2022-11-07T06:18:41.938Z,2.55
2022-11-07T06:21:11.624Z,2.75
2022-11-07T06:23:39.622Z,2.58
2022-11-07T06:26:07.689Z,2.72
2022-11-07T06:28:36.313Z,2.90
2022-11-07T06:31:05.035Z,2.50
2022-11-07T06:33:33.393Z,2.65
2022-11-07T06:36:12.336Z,2.55
2022-11-07T06:38:41.707Z,3.10
2022-11-07T06:41:11.179Z,2.72
2022-11-07T06:43:39.900Z,2.53
2022-11-07T06:46:11.152Z,2.53
2022-11-07T06:48:39.384Z,2.50
2022-11-07T06:51:09.860Z,2.85
2022-11-07T06:53:38.757Z,2.50
2022-11-07T06:56:09.735Z,2.38
2022-11-07T06:58:37.700Z,3.05
2022-11-07T07:01:08.647Z,2.55
2022-11-07T07:03:37.067Z,3.13
2022-11-07T07:06:06.853Z,2.47
2022-11-07T07:08:35.496Z,2.22
2022-11-07T07:11:04.497Z,2.80
2022-11-07T07:13:34.128Z,2.15
2022-11-07T07:16:02.312Z,2.40
2022-11-07T07:18:30.705Z,2.40
2022-11-07T07:21:04.924Z,2.97
2022-11-07T07:23:34.668Z,2.70
2022-11-07T07:26:02.787Z,2.40
2022-11-07T07:28:30.989Z,2.35
2022-11-07T07:31:11.635Z,2.97
2022-11-07T07:33:39.503Z,3.13
2022-11-07T07:36:08.616Z,2.13
2022-11-07T07:38:36.982Z,2.00
2022-11-07T07:41:05.548Z,2.35
2022-11-07T07:43:33.958Z,2.50
2022-11-07T07:46:03.164Z,1.70
2022-11-07T07:48:32.519Z,2.17
2022-11-07T07:51:00.744Z,2.88
2022-11-07T07:53:28.717Z,2.45
2022-11-07T07:55:58.422Z,2.75
2022-11-07T07:58:26.384Z,1.98
2022-11-07T08:00:54.573Z,2.53
2022-11-07T08:03:22.416Z,2.00
2022-11-07T08:05:55.783Z,2.28
2022-11-07T08:08:24.932Z,2.22
2022-11-07T08:10:54.612Z,2.35
2022-11-07T08:13:23.537Z,2.28
2022-11-07T08:15:51.870Z,2.15
2022-11-07T08:18:21.887Z,2.50
2022-11-07T08:20:51.371Z,1.92
2022-11-07T08:23:20.758Z,1.70
2022-11-07T08:25:52.887Z,2.53
2022-11-07T08:28:22.139Z,2.08
2022-11-07T08:31:00.091Z,1.70
2022-11-07T08:33:28.650Z,1.58
2022-11-07T08:35:57.563Z,2.10
2022-11-07T08:38:27.064Z,1.98
2022-11-07T08:40:54.958Z,2.00
2022-11-07T08:43:22.898Z,1.67
2022-11-07T08:45:51.259Z,1.92
2022-11-07T08:48:20.075Z,2.20
2022-11-07T08:50:52.094Z,2.30
2022-11-07T08:53:20.194Z,2.03
2022-11-07T08:55:49.669Z,1.90
2022-11-07T08:58:17.730Z,2.38
2022-11-07T09:00:45.892Z,1.67
2022-11-07T09:06:02.008Z,2.10
2022-11-07T09:08:29.897Z,1.92
2022-11-07T09:11:06.599Z,1.83
2022-11-07T09:13:35.271Z,2.15
2022-11-07T09:16:04.886Z,1.90
2022-11-07T09:18:33.423Z,1.75
2022-11-07T09:21:01.539Z,1.83
2022-11-07T09:23:29.535Z,1.63
2022-11-07T09:25:59.961Z,1.80
2022-11-07T09:28:29.783Z,1.92
2022-11-07T09:30:59.012Z,2.30
2022-11-07T09:33:27.516Z,2.17
2022-11-07T09:35:55.980Z,1.33
2022-11-07T09:38:23.988Z,1.70
2022-11-07T09:41:00.094Z,1.70
2022-11-07T09:43:42.918Z,1.65
2022-11-07T09:46:21.246Z,1.83
2022-11-07T09:48:54.625Z,2.60
2022-11-07T09:51:29.004Z,1.73
2022-11-07T09:54:01.271Z,1.52
2022-11-07T09:56:32.257Z,1.80
2022-11-07T09:59:11.146Z,1.63
2022-11-07T10:01:42.604Z,2.05
2022-11-07T10:04:25.873Z,2.33
2022-11-07T10:07:00.282Z,2.05
2022-11-07T10:09:40.293Z,1.98
2022-11-07T10:12:19.127Z,1.40
2022-11-07T10:15:00.537Z,1.70
2022-11-07T10:17:39.448Z,2.03
2022-11-07T10:20:24.776Z,2.67
2022-11-07T10:23:04.472Z,1.83
2022-11-07T10:25:39.712Z,1.70
2022-11-07T10:28:15.155Z,1.70
2022-11-07T10:30:47.715Z,2.17
2022-11-07T10:33:28.996Z,1.50
2022-11-07T10:36:03.243Z,1.58
2022-11-07T10:38:34.872Z,1.60
2022-11-07T10:41:02.972Z,1.60
2022-11-07T10:43:35.664Z,1.70
2022-11-07T10:46:08.060Z,1.92
2022-11-07T10:48:36.187Z,1.55
2022-11-07T10:51:04.089Z,1.80
2022-11-07T10:53:31.933Z,1.80
2022-11-07T10:56:00.524Z,2.10
2022-11-07T10:58:31.280Z,1.83
2022-11-07T11:01:06.313Z,2.45
2022-11-07T11:03:45.228Z,1.60
2022-11-07T11:06:24.155Z,2.00
2022-11-07T11:08:53.616Z,2.30
2022-11-07T11:11:33.443Z,1.65
2022-11-07T11:14:12.065Z,1.48
2022-11-07T11:16:42.961Z,2.10
2022-11-07T11:19:22.154Z,1.40
2022-11-07T11:21:52.342Z,1.50
2022-11-07T11:24:27.708Z,1.92
2022-11-07T11:26:58.461Z,1.67
2022-11-07T11:29:39.340Z,1.60
2022-11-07T11:32:17.649Z,1.95
2022-11-07T11:34:54.865Z,1.77
2022-11-07T11:37:27.316Z,2.13
2022-11-07T11:40:16.271Z,2.00
2022-11-07T11:42:50.275Z,2.00
2022-11-07T11:45:24.240Z,1.77
2022-11-07T11:48:00.882Z,1.80
2022-11-07T11:50:40.580Z,2.78
2022-11-07T11:53:15.571Z,1.52
2022-11-07T11:55:52.683Z,1.80
2022-11-07T11:58:37.321Z,2.25
2022-11-07T12:01:13.642Z,1.70
2022-11-07T12:04:07.989Z,1.45
2022-11-07T12:06:39.948Z,1.83
2022-11-07T12:09:19.765Z,1.40
2022-11-07T12:12:00.664Z,1.58
2022-11-07T12:14:42.966Z,1.50
2022-11-07T12:17:15.470Z,1.67
2022-11-07T12:19:54.650Z,1.52
2022-11-07T12:22:32.926Z,1.88
2022-11-07T12:25:08.486Z,1.60
2022-11-07T12:27:44.462Z,2.00
2022-11-07T12:30:22.559Z,1.67
2022-11-07T12:33:02.410Z,1.75
2022-11-07T12:35:43.554Z,1.40
2022-11-07T12:38:41.510Z,2.03
2022-11-07T12:41:17.423Z,2.13
2022-11-07T12:43:57.544Z,1.83
2022-11-07T12:46:29.378Z,1.50
2022-11-07T12:49:15.231Z,1.40
2022-11-07T12:52:00.276Z,1.40
2022-11-07T12:54:39.017Z,1.70
2022-11-07T12:57:16.309Z,1.45
2022-11-07T12:59:48.681Z,1.40
2022-11-07T13:02:29.727Z,1.35
2022-11-07T13:05:02.832Z,1.55
2022-11-07T13:07:40.161Z,1.48
2022-11-07T13:10:15.900Z,2.03
2022-11-07T13:12:52.055Z,2.50
2022-11-07T13:15:20.360Z,1.73
2022-11-07T13:17:50.412Z,1.63
2022-11-07T13:20:28.287Z,2.42
2022-11-07T13:22:59.022Z,1.45
2022-11-07T13:25:30.391Z,2.05
2022-11-07T13:28:20.246Z,1.92
2022-11-07T13:30:56.856Z,1.92
2022-11-07T13:33:27.560Z,1.90
2022-11-07T13:35:57.839Z,1.90
2022-11-07T13:38:28.623Z,2.35
2022-11-07T13:41:01.819Z,1.67
2022-11-07T13:43:41.364Z,1.63
2022-11-07T13:46:12.617Z,2.00
2022-11-07T13:48:48.909Z,1.60
2022-11-07T13:51:22.075Z,2.10
2022-11-07T13:54:01.568Z,1.77
2022-11-07T13:56:34.652Z,1.35
2022-11-07T13:59:05.329Z,1.60
2022-11-07T14:01:43.637Z,1.70
2022-11-07T14:04:17.172Z,1.83
2022-11-07T14:06:45.616Z,2.22
2022-11-07T14:09:19.133Z,1.50
2022-11-07T14:11:47.933Z,1.88
2022-11-07T14:14:15.954Z,2.25
2022-11-07T14:16:47.542Z,3.00
2022-11-07T14:19:17.416Z,2.30
2022-11-07T14:21:47.280Z,1.63
2022-11-07T14:24:25.569Z,1.90
2022-11-07T14:27:02.963Z,2.40
2022-11-07T14:29:31.098Z,1.70
2022-11-07T14:32:01.069Z,1.83
2022-11-07T14:34:29.466Z,1.77
2022-11-07T14:36:59.802Z,1.88
2022-11-07T14:39:31.706Z,2.72
2022-11-07T14:42:02.827Z,1.90
2022-11-07T14:47:27.368Z,1.77
2022-11-07T14:49:56.588Z,1.50
2022-11-07T14:52:27.395Z,1.80
2022-11-07T14:55:03.481Z,2.10
2022-11-07T14:57:33.642Z,1.98
2022-11-07T15:00:01.692Z,2.15
2022-11-07T15:02:32.054Z,1.95
2022-11-07T15:05:09.662Z,1.85
2022-11-07T15:07:48.592Z,6.60
2022-11-07T15:10:30.614Z,2.10
2022-11-07T15:13:01.097Z,2.20
2022-11-07T15:15:32.495Z,2.30
2022-11-07T15:18:02.693Z,2.30
2022-11-07T15:20:35.912Z,2.20
2022-11-07T15:23:06.031Z,1.95
2022-11-07T15:25:37.985Z,2.00
2022-11-07T15:28:24.311Z,2.33
2022-11-07T15:30:54.225Z,1.58
2022-11-07T15:33:23.202Z,1.67
2022-11-07T15:35:55.986Z,2.65
2022-11-07T15:38:26.101Z,1.80
2022-11-07T15:40:55.794Z,2.60
2022-11-07T15:43:24.144Z,1.73
2022-11-07T15:45:53.557Z,1.77
2022-11-07T15:48:24.490Z,1.75
2022-11-07T15:50:52.556Z,2.15
2022-11-07T15:53:22.782Z,2.38
2022-11-07T15:55:52.909Z,2.97
2022-11-07T15:58:24.275Z,2.20
2022-11-07T16:00:52.479Z,2.15
2022-11-07T16:03:22.483Z,2.10
2022-11-07T16:05:52.296Z,2.25
2022-11-07T16:08:22.762Z,2.20
2022-11-07T16:10:53.044Z,2.65
2022-11-07T16:13:22.543Z,3.33
2022-11-07T16:15:54.513Z,2.78
2022-11-07T16:18:23.383Z,2.28
2022-11-07T16:20:51.895Z,2.97
2022-11-07T16:23:20.035Z,3.00
2022-11-07T16:25:51.035Z,2.75
2022-11-07T16:28:30.225Z,3.03
2022-11-07T16:30:58.938Z,3.53
2022-11-07T16:33:28.324Z,3.10
2022-11-07T16:35:59.727Z,3.10
2022-11-07T16:38:34.086Z,3.60
2022-11-07T16:41:03.286Z,3.25
2022-11-07T16:43:35.098Z,4.80
2022-11-07T16:46:03.218Z,3.72
2022-11-07T16:48:31.848Z,3.88
2022-11-07T16:50:59.716Z,3.70
2022-11-07T16:53:27.526Z,3.83
2022-11-07T16:55:57.346Z,3.35
2022-11-07T16:58:28.255Z,3.50
2022-11-07T17:00:58.940Z,3.35
2022-11-07T17:03:27.397Z,4.03
2022-11-07T17:05:57.443Z,3.47
2022-11-07T17:08:29.720Z,3.58
2022-11-07T17:10:57.657Z,3.17
2022-11-07T17:13:25.567Z,3.17
2022-11-07T17:15:54.373Z,3.67
2022-11-07T17:18:25.758Z,4.10
2022-11-07T17:20:54.601Z,3.63
2022-11-07T17:23:29.692Z,3.83
2022-11-07T17:26:00.364Z,3.45
2022-11-07T17:28:28.371Z,3.80
2022-11-07T17:30:56.331Z,4.28
2022-11-07T17:33:25.770Z,4.00
2022-11-07T17:35:56.007Z,3.92
2022-11-07T17:38:25.579Z,3.88
2022-11-07T17:40:53.680Z,3.90
2022-11-07T17:43:21.917Z,5.93
2022-11-07T17:45:50.061Z,5.63
2022-11-07T17:48:18.588Z,4.75
2022-11-07T17:50:48.525Z,4.88
2022-11-07T17:53:16.743Z,5.47
2022-11-07T17:55:45.537Z,4.65
2022-11-07T17:58:13.918Z,5.25
2022-11-07T18:00:42.045Z,5.07
2022-11-07T18:03:10.231Z,5.50
2022-11-07T18:05:38.356Z,5.40
2022-11-07T18:08:15.433Z,5.40
2022-11-07T18:10:56.483Z,5.88
2022-11-07T18:13:25.070Z,6.15
2022-11-07T18:15:53.011Z,5.97
2022-11-07T18:18:21.284Z,4.97
2022-11-07T18:20:49.483Z,5.00
2022-11-07T18:23:18.725Z,4.75
2022-11-07T18:25:47.347Z,5.25
2022-11-07T18:28:15.661Z,5.20
2022-11-07T18:30:44.004Z,5.07
2022-11-07T18:33:11.850Z,4.95
2022-11-07T18:35:41.885Z,5.80
2022-11-07T18:38:10.142Z,5.90
2022-11-07T18:40:39.509Z,5.23
2022-11-07T18:43:09.965Z,4.93
2022-11-07T18:45:42.569Z,5.32
2022-11-07T18:48:10.433Z,4.85
2022-11-07T18:50:39.971Z,5.68
2022-11-07T18:53:09.046Z,4.82
2022-11-07T18:55:36.992Z,5.22
2022-11-07T18:58:06.374Z,4.32
2022-11-07T19:00:35.074Z,4.10
2022-11-07T19:03:03.331Z,6.18
2022-11-07T19:05:31.285Z,5.68
2022-11-07T19:07:59.139Z,6.35
2022-11-07T19:10:27.007Z,7.32
2022-11-07T19:12:54.812Z,5.82
2022-11-07T19:15:27.064Z,6.05
2022-11-07T19:17:54.907Z,5.25
2022-11-07T19:20:22.920Z,6.03
2022-11-07T19:22:50.681Z,5.53
2022-11-07T19:25:19.035Z,4.88
2022-11-07T19:27:48.482Z,5.53
2022-11-07T19:30:16.854Z,5.65
2022-11-07T19:32:48.085Z,5.53
2022-11-07T19:35:17.481Z,5.55
2022-11-07T19:37:45.373Z,6.80
2022-11-07T19:40:13.789Z,5.35
2022-11-07T19:42:41.640Z,5.07
2022-11-07T19:45:09.880Z,4.53
2022-11-07T19:47:37.828Z,4.55
2022-11-07T19:50:08.205Z,4.18
2022-11-07T19:52:36.125Z,4.28
2022-11-07T19:55:05.145Z,3.70
2022-11-07T19:57:32.969Z,4.22
2022-11-07T20:00:00.909Z,3.25
2022-11-07T20:02:34.456Z,3.38
2022-11-07T20:05:09.085Z,3.53
2022-11-07T20:07:36.977Z,3.70
2022-11-07T20:10:05.380Z,4.00
2022-11-07T20:12:33.619Z,4.60
2022-11-07T20:15:01.623Z,4.70
2022-11-07T20:17:29.758Z,4.38
2022-11-07T20:20:01.219Z,5.18
2022-11-07T20:22:33.751Z,5.53
2022-11-07T20:25:01.620Z,4.57
2022-11-07T20:27:29.506Z,4.72
2022-11-07T20:29:58.426Z,4.90
2022-11-07T20:32:26.457Z,4.53
2022-11-07T20:34:54.386Z,4.82
2022-11-07T20:37:22.815Z,6.28
2022-11-07T20:39:52.120Z,5.38
2022-11-07T20:42:20.063Z,5.68
2022-11-07T20:44:48.087Z,5.75
2022-11-07T20:47:16.018Z,6.90
2022-11-07T20:49:44.039Z,7.65
2022-11-07T20:52:11.956Z,8.80
2022-11-07T20:54:39.811Z,6.65
2022-11-07T20:57:10.702Z,6.90
2022-11-07T20:59:41.340Z,6.63
2022-11-07T21:02:11.950Z,6.03
2022-11-07T21:04:56.387Z,5.60
2022-11-07T21:07:27.748Z,5.32
2022-11-07T21:09:55.642Z,4.32
2022-11-07T21:12:25.069Z,6.38
2022-11-07T21:14:53.011Z,5.25
2022-11-07T21:17:20.950Z,5.05
2022-11-07T21:19:48.904Z,4.53
2022-11-07T21:22:17.252Z,5.25
2022-11-07T21:24:45.752Z,4.30
2022-11-07T21:27:13.728Z,4.72
2022-11-07T21:29:43.094Z,4.70
2022-11-07T21:32:10.997Z,4.90
2022-11-07T21:34:39.855Z,4.90
2022-11-07T21:37:07.991Z,4.72
2022-11-07T21:39:35.970Z,4.90
2022-11-07T21:42:04.399Z,4.88
2022-11-07T21:44:32.518Z,4.97
2022-11-07T21:47:01.784Z,5.50
2022-11-07T21:49:29.713Z,4.63
2022-11-07T21:51:57.900Z,5.72
2022-11-07T21:54:25.904Z,4.55
2022-11-07T21:56:53.784Z,7.28
2022-11-07T21:59:21.725Z,5.20
2022-11-07T22:01:50.094Z,4.72
2022-11-07T22:04:19.485Z,5.32
2022-11-07T22:06:47.789Z,5.88
2022-11-07T22:09:17.999Z,6.70
2022-11-07T22:11:46.163Z,5.95
2022-11-07T22:14:15.631Z,6.28
2022-11-07T22:16:43.729Z,5.82
2022-11-07T22:19:12.878Z,6.40
2022-11-07T22:21:44.607Z,6.63
2022-11-07T22:24:13.003Z,6.90
2022-11-07T22:26:40.944Z,6.45
2022-11-07T22:29:08.889Z,6.13
2022-11-07T22:31:36.799Z,5.95
2022-11-07T22:34:05.242Z,6.28
2022-11-07T22:36:33.210Z,5.63
2022-11-07T22:39:02.624Z,6.07
2022-11-07T22:41:31.526Z,5.95
2022-11-07T22:44:00.131Z,5.75
2022-11-07T22:46:29.984Z,6.15
2022-11-07T22:48:59.304Z,6.47
2022-11-07T22:51:29.585Z,6.40
2022-11-07T22:53:59.347Z,7.15
2022-11-07T22:56:30.199Z,8.35
2022-11-07T22:58:58.432Z,6.65
2022-11-07T23:01:28.901Z,7.78
2022-11-07T23:03:57.662Z,7.28
2022-11-07T23:06:27.233Z,8.13
2022-11-07T23:08:57.115Z,6.55
2022-11-07T23:14:17.991Z,6.22
2022-11-07T23:16:48.913Z,8.05
2022-11-07T23:19:18.479Z,6.97
2022-11-07T23:21:46.538Z,5.93
2022-11-07T23:24:15.639Z,6.20
2022-11-07T23:26:45.147Z,6.05
2022-11-07T23:29:17.684Z,5.32
2022-11-07T23:31:47.925Z,6.15
2022-11-07T23:34:16.857Z,5.82
2022-11-07T23:36:45.589Z,6.40
2022-11-07T23:39:16.672Z,6.45
2022-11-07T23:41:45.438Z,6.00
2022-11-07T23:44:14.193Z,4.90
2022-11-07T23:47:01.614Z,5.22
2022-11-07T23:49:49.445Z,7.97
2022-11-07T23:52:17.539Z,5.78
2022-11-07T23:55:02.877Z,5.85
2022-11-07T23:57:33.568Z,5.97
